Sds Green — ICOK — position and weather

sailwx.info

Track history (hours):
 
Tides and Currents Weather Stations Pressure Air Temp Water Temp Dewpoint Dewpoint Depression Visibility Wind Speed Wind Dir Waves Ship Positions

Sds Green

Last reported at 2014-Oct-12 00:30 UTC. Time now 2014-Oct-22 00:16 UTC.
Position N 36°48' E 003°05'.
Warning: this ship's position is 9 days out of date.

Length 108 m; draft 7.3 m.

Type: Cargo ship. MMSI: 247292200.

Date/timePositionNaut miles runAvg speedWind from/ knotsBaromVisibWave heightAir tempDewpointWater temp
2014-Oct-12 00:30N 36°48' E 003°05'0 0.0
2014-Oct-11 23:18N 36°48' E 003°05'0 0.0
2014-Oct-11 10:15N 36°47' E 003°05'0 0.0
2014-Oct-11 02:06N 36°47' E 003°05'0 0.0
2014-Oct-11 01:33N 36°47' E 003°05'0 0.0
2014-Oct-10 21:15N 36°47' E 003°05'0 0.0
2014-Oct-10 20:33N 36°47' E 003°05'0 0.0
2014-Oct-10 06:33N 36°47' E 003°05'0 0.0
2014-Oct-10 05:33N 36°47' E 003°05'0 0.0
2014-Oct-09 21:09N 36°47' E 003°05'0 0.1
2014-Oct-09 20:33N 36°47' E 003°05'0 0.0
2014-Oct-09 19:33N 36°47' E 003°05'0 0.0
2014-Oct-09 18:15N 36°47' E 003°05'0 0.0
2014-Oct-09 17:30N 36°47' E 003°05'0 0.0
2014-Oct-09 16:30N 36°47' E 003°05'0 0.0
2014-Oct-09 15:30N 36°47' E 003°05'0 0.0
2014-Oct-09 08:03N 36°47' E 003°05'0 0.0
2014-Oct-09 07:33N 36°47' E 003°05'0 0.0
2014-Oct-08 20:09N 36°47' E 003°05'0 0.0
2014-Oct-08 19:33N 36°47' E 003°05'7 7.2
2014-Oct-08 18:33N 36°51' E 002°57'6112.2
2014-Oct-08 13:31N 36°42' E 001°42'1312.8
2014-Oct-08 12:31N 36°41' E 001°26'1212.4
2014-Oct-08 11:33N 36°39' E 001°11'1812.4
2014-Oct-08 10:05N 36°36' E 000°48'712.3
2014-Oct-08 09:32N 36°36' E 000°40'1212.5
2014-Oct-08 08:33N 36°34' E 000°25'1212.2
2014-Oct-08 07:33N 36°32' E 000°10'2811.7
2014-Oct-08 05:08N 36°28' W 000°25'711.3
2014-Oct-08 04:31N 36°27' W 000°34'2911.7
2014-Oct-08 02:04N 36°23' W 001°09'912.0
2014-Oct-08 01:20N 36°22' W 001°20'2111.4
2014-Oct-07 23:27N 36°19' W 001°46'1211.7
2014-Oct-07 22:27N 36°18' W 002°00'16211.6
2014-Oct-07 08:34N 35°54' W 005°18'1 0.9
2014-Oct-07 07:34N 35°54' W 005°19'0 0.0
2014-Oct-07 06:33N 35°54' W 005°19'0 0.0
2014-Oct-07 05:34N 35°54' W 005°19'1 1.2
2014-Oct-07 04:34N 35°55' W 005°19'216 9.8
2014-Oct-06 06:33N 37°25' W 009°25'1111.1
2014-Oct-06 05:33N 37°36' W 009°20'1111.5
2014-Oct-06 04:33N 37°47' W 009°16'1111.1
2014-Oct-06 03:33N 37°57' W 009°11'1110.9
2014-Oct-06 02:33N 38°08' W 009°07'1111.2
2014-Oct-06 01:33N 38°18' W 009°03'1110.6
2014-Oct-06 00:33N 38°28' W 008°57'2 1.6
2014-Oct-05 23:33N 38°29' W 008°56'0 0.0
2014-Oct-05 22:33N 38°29' W 008°56'0 0.0
2014-Oct-05 21:33N 38°29' W 008°56'0 0.0
2014-Oct-05 20:33N 38°29' W 008°56'0 0.0
2014-Oct-05 19:33N 38°29' W 008°56'0 0.0
2014-Oct-05 18:32N 38°29' W 008°56'0 0.0
2014-Oct-05 17:33N 38°29' W 008°56'0 0.0
2014-Oct-05 16:33N 38°29' W 008°56'0 0.0
2014-Oct-05 15:33N 38°29' W 008°56'0 0.0
2014-Oct-05 14:33N 38°29' W 008°56'0 0.0
2014-Oct-05 13:33N 38°29' W 008°56'0 0.0
2014-Oct-05 12:33N 38°29' W 008°56'0 0.0
2014-Oct-05 11:33N 38°29' W 008°56'0 0.0
2014-Oct-05 10:33N 38°29' W 008°56'0 0.0
2014-Oct-05 09:33N 38°29' W 008°56'0 0.0
2014-Oct-05 08:33N 38°29' W 008°56'0 0.0
2014-Oct-05 07:33N 38°29' W 008°56'0 0.0
2014-Oct-05 06:33N 38°29' W 008°56'0 0.0
2014-Oct-05 05:33N 38°29' W 008°56'0 0.0
2014-Oct-05 04:33N 38°29' W 008°56'0 0.0
2014-Oct-05 03:33N 38°29' W 008°56'0 0.0
2014-Oct-05 02:33N 38°29' W 008°56'0 0.0
2014-Oct-05 01:33N 38°29' W 008°56'0 0.0
2014-Oct-05 00:33N 38°29' W 008°56'0 0.0
2014-Oct-04 23:33N 38°29' W 008°56'0 0.0
2014-Oct-04 22:33N 38°29' W 008°56'0 0.0
2014-Oct-04 21:33N 38°29' W 008°56'0 0.0
2014-Oct-04 20:33N 38°29' W 008°56'0 0.0
2014-Oct-04 19:33N 38°29' W 008°56'0 0.0
2014-Oct-04 18:33N 38°29' W 008°56'0 0.0
2014-Oct-04 17:33N 38°29' W 008°56'0 0.0
2014-Oct-04 16:33N 38°29' W 008°56'0 0.0
2014-Oct-04 15:33N 38°29' W 008°56'0 0.0
2014-Oct-04 14:32N 38°29' W 008°56'0 0.0
2014-Oct-04 13:33N 38°29' W 008°56'0 0.0
2014-Oct-04 12:33N 38°29' W 008°56'0 0.0
2014-Oct-04 11:33N 38°29' W 008°56'0 0.0
2014-Oct-04 10:33N 38°29' W 008°56'0 0.0
2014-Oct-04 09:33N 38°29' W 008°56'0 0.0
2014-Oct-04 08:33N 38°29' W 008°56'0 0.0
2014-Oct-04 07:33N 38°29' W 008°56'0 0.0
2014-Oct-04 06:33N 38°29' W 008°56'0 0.0
2014-Oct-04 05:32N 38°29' W 008°56'0 0.4
2014-Oct-04 04:33N 38°29' W 008°56'6 5.9
2014-Oct-04 03:33N 38°24' W 008°60'1010.3
2014-Oct-04 02:33N 38°14' W 009°02'1211.8
2014-Oct-04 01:33N 38°02' W 009°05'1211.8
2014-Oct-04 00:33N 37°51' W 009°08'1211.7
2014-Oct-03 23:33N 37°39' W 009°11'1211.5
2014-Oct-03 22:32N 37°28' W 009°14'1511.4
2014-Oct-03 21:16N 37°14' W 009°18'811.4
2014-Oct-03 20:33N 37°06' W 009°20'1110.8
2014-Oct-03 19:33N 36°55' W 009°19'1110.6
2014-Oct-03 18:31N 36°47' W 009°10'1011.0
2014-Oct-03 17:33N 36°43' W 008°58'1111.3
2014-Oct-03 16:33N 36°39' W 008°45'  
Track history (hours):
 
Tides and Currents Weather Stations Pressure Air Temp Water Temp Dewpoint Dewpoint Depression Visibility Wind Speed Wind Dir Waves Ship Positions

Sds Green

Last reported at 2014-Oct-12 00:30 UTC. Time now 2014-Oct-22 00:16 UTC.
Position N 36°48' E 003°05'.
Warning: this ship's position is 9 days out of date.

Length 108 m; draft 7.3 m.

Type: Cargo ship. MMSI: 247292200.

Date/timePositionNaut miles runAvg speedWind from/ knotsBaromVisibWave heightAir tempDewpointWater temp
2014-Oct-12 00:30N 36°48' E 003°05'0 0.0
2014-Oct-11 23:18N 36°48' E 003°05'0 0.0
2014-Oct-11 10:15N 36°47' E 003°05'0 0.0
2014-Oct-11 02:06N 36°47' E 003°05'0 0.0
2014-Oct-11 01:33N 36°47' E 003°05'0 0.0
2014-Oct-10 21:15N 36°47' E 003°05'0 0.0
2014-Oct-10 20:33N 36°47' E 003°05'0 0.0
2014-Oct-10 06:33N 36°47' E 003°05'0 0.0
2014-Oct-10 05:33N 36°47' E 003°05'0 0.0
2014-Oct-09 21:09N 36°47' E 003°05'0 0.1
2014-Oct-09 20:33N 36°47' E 003°05'0 0.0
2014-Oct-09 19:33N 36°47' E 003°05'0 0.0
2014-Oct-09 18:15N 36°47' E 003°05'0 0.0
2014-Oct-09 17:30N 36°47' E 003°05'0 0.0
2014-Oct-09 16:30N 36°47' E 003°05'0 0.0
2014-Oct-09 15:30N 36°47' E 003°05'0 0.0
2014-Oct-09 08:03N 36°47' E 003°05'0 0.0
2014-Oct-09 07:33N 36°47' E 003°05'0 0.0
2014-Oct-08 20:09N 36°47' E 003°05'0 0.0
2014-Oct-08 19:33N 36°47' E 003°05'7 7.2
2014-Oct-08 18:33N 36°51' E 002°57'6112.2
2014-Oct-08 13:31N 36°42' E 001°42'1312.8
2014-Oct-08 12:31N 36°41' E 001°26'1212.4
2014-Oct-08 11:33N 36°39' E 001°11'1812.4
2014-Oct-08 10:05N 36°36' E 000°48'712.3
2014-Oct-08 09:32N 36°36' E 000°40'1212.5
2014-Oct-08 08:33N 36°34' E 000°25'1212.2
2014-Oct-08 07:33N 36°32' E 000°10'2811.7
2014-Oct-08 05:08N 36°28' W 000°25'711.3
2014-Oct-08 04:31N 36°27' W 000°34'2911.7
2014-Oct-08 02:04N 36°23' W 001°09'912.0
2014-Oct-08 01:20N 36°22' W 001°20'2111.4
2014-Oct-07 23:27N 36°19' W 001°46'1211.7
2014-Oct-07 22:27N 36°18' W 002°00'16211.6
2014-Oct-07 08:34N 35°54' W 005°18'1 0.9
2014-Oct-07 07:34N 35°54' W 005°19'0 0.0
2014-Oct-07 06:33N 35°54' W 005°19'0 0.0
2014-Oct-07 05:34N 35°54' W 005°19'1 1.2
2014-Oct-07 04:34N 35°55' W 005°19'216 9.8
2014-Oct-06 06:33N 37°25' W 009°25'1111.1
2014-Oct-06 05:33N 37°36' W 009°20'1111.5
2014-Oct-06 04:33N 37°47' W 009°16'1111.1
2014-Oct-06 03:33N 37°57' W 009°11'1110.9
2014-Oct-06 02:33N 38°08' W 009°07'1111.2
2014-Oct-06 01:33N 38°18' W 009°03'1110.6
2014-Oct-06 00:33N 38°28' W 008°57'2 1.6
2014-Oct-05 23:33N 38°29' W 008°56'0 0.0
2014-Oct-05 22:33N 38°29' W 008°56'0 0.0
2014-Oct-05 21:33N 38°29' W 008°56'0 0.0
2014-Oct-05 20:33N 38°29' W 008°56'0 0.0
2014-Oct-05 19:33N 38°29' W 008°56'0 0.0
2014-Oct-05 18:32N 38°29' W 008°56'0 0.0
2014-Oct-05 17:33N 38°29' W 008°56'0 0.0
2014-Oct-05 16:33N 38°29' W 008°56'0 0.0
2014-Oct-05 15:33N 38°29' W 008°56'0 0.0
2014-Oct-05 14:33N 38°29' W 008°56'0 0.0
2014-Oct-05 13:33N 38°29' W 008°56'0 0.0
2014-Oct-05 12:33N 38°29' W 008°56'0 0.0
2014-Oct-05 11:33N 38°29' W 008°56'0 0.0
2014-Oct-05 10:33N 38°29' W 008°56'0 0.0
2014-Oct-05 09:33N 38°29' W 008°56'0 0.0
2014-Oct-05 08:33N 38°29' W 008°56'0 0.0
2014-Oct-05 07:33N 38°29' W 008°56'0 0.0
2014-Oct-05 06:33N 38°29' W 008°56'0 0.0
2014-Oct-05 05:33N 38°29' W 008°56'0 0.0
2014-Oct-05 04:33N 38°29' W 008°56'0 0.0
2014-Oct-05 03:33N 38°29' W 008°56'0 0.0
2014-Oct-05 02:33N 38°29' W 008°56'0 0.0
2014-Oct-05 01:33N 38°29' W 008°56'0 0.0
2014-Oct-05 00:33N 38°29' W 008°56'0 0.0
2014-Oct-04 23:33N 38°29' W 008°56'0 0.0
2014-Oct-04 22:33N 38°29' W 008°56'0 0.0
2014-Oct-04 21:33N 38°29' W 008°56'0 0.0
2014-Oct-04 20:33N 38°29' W 008°56'0 0.0
2014-Oct-04 19:33N 38°29' W 008°56'0 0.0
2014-Oct-04 18:33N 38°29' W 008°56'0 0.0
2014-Oct-04 17:33N 38°29' W 008°56'0 0.0
2014-Oct-04 16:33N 38°29' W 008°56'0 0.0
2014-Oct-04 15:33N 38°29' W 008°56'0 0.0
2014-Oct-04 14:32N 38°29' W 008°56'0 0.0
2014-Oct-04 13:33N 38°29' W 008°56'0 0.0
2014-Oct-04 12:33N 38°29' W 008°56'0 0.0
2014-Oct-04 11:33N 38°29' W 008°56'0 0.0
2014-Oct-04 10:33N 38°29' W 008°56'0 0.0
2014-Oct-04 09:33N 38°29' W 008°56'0 0.0
2014-Oct-04 08:33N 38°29' W 008°56'0 0.0
2014-Oct-04 07:33N 38°29' W 008°56'0 0.0
2014-Oct-04 06:33N 38°29' W 008°56'0 0.0
2014-Oct-04 05:32N 38°29' W 008°56'0 0.4
2014-Oct-04 04:33N 38°29' W 008°56'6 5.9
2014-Oct-04 03:33N 38°24' W 008°60'1010.3
2014-Oct-04 02:33N 38°14' W 009°02'1211.8
2014-Oct-04 01:33N 38°02' W 009°05'1211.8
2014-Oct-04 00:33N 37°51' W 009°08'1211.7
2014-Oct-03 23:33N 37°39' W 009°11'1211.5
2014-Oct-03 22:32N 37°28' W 009°14'1511.4
2014-Oct-03 21:16N 37°14' W 009°18'811.4
2014-Oct-03 20:33N 37°06' W 009°20'1110.8
2014-Oct-03 19:33N 36°55' W 009°19'1110.6
2014-Oct-03 18:31N 36°47' W 009°10'1011.0
2014-Oct-03 17:33N 36°43' W 008°58'1111.3
2014-Oct-03 16:33N 36°39' W 008°45'  

Dump ship's entire track history